Terminal Aerodrome Forecast
Issued by NWS

Home | Current Version | Previous Version | Text Only | Print | Product List | Glossary On
Versions: 1 2 3 4 5 6 7 8 9 10 11 12 13
000
FTUS45 KPSR 240524
TAFBLH
TAF
KBLH 240524Z 2406/2506 33008KT P6SM FEW250
     FM242000 03005KT P6SM SCT250
     FM250200 35006KT P6SM FEW250=

USA.gov is the U.S. government's official web portal to all federal, state and local government web resources and services.